Time;durP1;ratioP1;P1;durP2;ratioP2;P2;SDS_P1;SDS_P2;PMS_P1;PMS_P2;Temp;Humidity;BMP_temperature;BMP_pressure;BME280_temperature;BME280_humidity;BME280_pressure;Samples;Min_cycle;Max_cycle;Signal;HPM_P1;HPM_P2
2023/03/22 00:00:50;;;;;;;20.25;5.22;;;10.20;99.90;;;;;;5021181;28;20437;-75
2023/03/22 00:03:16;;;;;;;13.52;4.25;;;10.10;99.90;;;;;;4994709;28;20428;-76
2023/03/22 00:05:42;;;;;;;9.68;3.45;;;10.10;99.90;;;;;;4995606;28;20832;-76
2023/03/22 00:08:09;;;;;;;12.32;3.65;;;10.10;99.90;;;;;;5015365;28;20445;-75
2023/03/22 00:10:37;;;;;;;12.18;3.22;;;10.10;99.90;;;;;;4984169;28;20446;-76
2023/03/22 00:13:05;;;;;;;14.00;3.60;;;10.10;99.90;;;;;;5009597;28;20431;-75
2023/03/22 00:15:30;;;;;;;11.75;3.35;;;10.00;99.90;;;;;;4989665;28;20434;-75
2023/03/22 00:17:57;;;;;;;10.50;2.92;;;10.00;99.90;;;;;;4991125;28;20414;-75
2023/03/22 00:20:29;;;;;;;8.82;2.45;;;10.00;99.90;;;;;;4986959;28;20430;-75
2023/03/22 00:22:59;;;;;;;10.70;3.90;;;10.00;99.90;;;;;;4987533;28;20437;-74
2023/03/22 00:25:24;;;;;;;12.77;3.38;;;9.90;99.90;;;;;;4978472;28;20437;-74
2023/03/22 00:27:50;;;;;;;8.52;2.50;;;9.90;99.90;;;;;;4989689;28;20422;-74
2023/03/22 00:30:16;;;;;;;7.22;2.85;;;9.90;99.90;;;;;;4983554;28;20532;-75
2023/03/22 00:32:41;;;;;;;8.25;2.75;;;9.80;99.90;;;;;;4984498;28;20527;-74
2023/03/22 00:35:08;;;;;;;12.23;2.85;;;9.90;99.90;;;;;;4987872;28;20432;-76
2023/03/22 00:37:37;;;;;;;10.05;2.50;;;9.90;99.90;;;;;;4992267;28;20434;-76
2023/03/22 00:40:11;;;;;;;10.57;3.25;;;9.90;99.90;;;;;;4986275;28;20434;-74
2023/03/22 00:42:38;;;;;;;8.95;2.25;;;9.90;99.90;;;;;;4979667;28;20430;-75
2023/03/22 00:45:06;;;;;;;8.77;2.67;;;9.80;99.90;;;;;;4987155;28;20430;-76
2023/03/22 00:47:32;;;;;;;10.40;3.08;;;9.80;99.90;;;;;;4988516;28;20466;-75
2023/03/22 00:49:58;;;;;;;8.35;2.85;;;9.80;99.90;;;;;;4986611;28;20472;-74
2023/03/22 00:52:24;;;;;;;13.82;3.38;;;9.80;99.90;;;;;;4987647;28;20505;-75
2023/03/22 00:54:50;;;;;;;8.63;2.30;;;9.80;99.90;;;;;;4987507;28;20446;-74
2023/03/22 00:57:16;;;;;;;8.33;2.73;;;9.80;99.90;;;;;;4986141;28;20520;-75
2023/03/22 00:59:42;;;;;;;9.50;2.97;;;9.90;99.90;;;;;;4975202;28;20522;-75
2023/03/22 01:02:12;;;;;;;13.65;2.90;;;9.80;99.90;;;;;;4986598;28;20434;-75
2023/03/22 01:04:39;;;;;;;9.65;2.45;;;9.80;99.90;;;;;;4994720;28;20525;-74
2023/03/22 01:07:06;;;;;;;10.77;2.33;;;9.70;99.90;;;;;;4986149;28;20886;-75
2023/03/22 01:09:32;;;;;;;7.18;2.20;;;9.80;99.90;;;;;;4984995;28;20496;-75
2023/03/22 01:12:00;;;;;;;12.23;2.97;;;9.70;99.90;;;;;;4988750;28;20441;-75
2023/03/22 01:14:27;;;;;;;10.00;2.42;;;9.70;99.90;;;;;;4987517;28;20441;-75
2023/03/22 01:16:56;;;;;;;9.88;2.33;;;9.70;99.90;;;;;;5008546;28;20475;-75
2023/03/22 01:19:22;;;;;;;10.52;1.92;;;9.70;99.90;;;;;;4983350;28;20853;-75
2023/03/22 01:21:48;;;;;;;7.90;2.35;;;9.80;99.90;;;;;;4988955;28;20431;-76
2023/03/22 01:24:13;;;;;;;10.73;2.60;;;9.70;99.90;;;;;;4988952;28;20804;-74
2023/03/22 01:26:39;;;;;;;11.93;2.80;;;9.70;99.90;;;;;;4984970;28;20436;-74
2023/03/22 01:29:05;;;;;;;8.43;2.22;;;9.70;99.90;;;;;;4971997;28;20954;-75
2023/03/22 01:31:30;;;;;;;10.55;2.53;;;9.70;99.90;;;;;;4984287;28;20460;-74
2023/03/22 01:33:56;;;;;;;11.40;1.97;;;9.70;99.90;;;;;;4976456;28;20420;-74
2023/03/22 01:36:22;;;;;;;10.77;2.23;;;9.70;99.90;;;;;;4984371;28;20509;-75
2023/03/22 01:38:47;;;;;;;8.00;1.77;;;9.60;99.90;;;;;;4976825;28;20447;-76
2023/03/22 01:41:14;;;;;;;7.78;2.38;;;9.60;99.90;;;;;;5015253;28;20433;-75
2023/03/22 01:43:40;;;;;;;9.30;2.75;;;9.70;99.90;;;;;;4989243;28;20418;-74
2023/03/22 01:46:07;;;;;;;7.70;2.08;;;9.60;99.90;;;;;;4985475;28;20851;-76
2023/03/22 01:48:40;;;;;;;8.98;2.72;;;9.60;99.90;;;;;;4989107;28;20471;-75
2023/03/22 01:51:12;;;;;;;6.50;1.73;;;9.60;99.90;;;;;;4979929;28;20438;-75
2023/03/22 01:53:55;;;;;;;8.55;2.70;;;9.60;99.90;;;;;;4976547;28;20495;-75
2023/03/22 01:56:24;;;;;;;9.57;2.30;;;9.60;99.90;;;;;;4979824;28;20430;-75
2023/03/22 01:58:53;;;;;;;11.02;2.40;;;9.70;99.90;;;;;;4982337;28;20441;-74
2023/03/22 02:01:20;;;;;;;10.50;2.78;;;9.70;99.90;;;;;;4984931;28;20433;-74
2023/03/22 02:04:01;;;;;;;8.52;2.13;;;9.70;99.90;;;;;;5012768;28;20426;-75
2023/03/22 02:06:28;;;;;;;11.43;2.20;;;9.80;99.90;;;;;;4982548;28;20505;-77
2023/03/22 02:08:57;;;;;;;8.85;2.15;;;9.70;99.90;;;;;;4978270;28;20426;-76
2023/03/22 02:11:34;;;;;;;9.18;2.67;;;9.70;99.90;;;;;;4987257;28;20439;-76
2023/03/22 02:14:29;;;;;;;10.52;2.70;;;9.70;99.90;;;;;;4990159;28;20422;-74
2023/03/22 02:17:01;;;;;;;11.33;2.20;;;9.70;99.90;;;;;;4986357;28;20791;-77
2023/03/22 02:19:41;;;;;;;7.00;1.65;;;9.70;99.90;;;;;;4985883;28;20434;-74
2023/03/22 02:22:24;;;;;;;8.18;1.67;;;9.70;99.90;;;;;;4974546;28;20494;-75
2023/03/22 02:25:28;;;;;;;10.98;2.90;;;9.70;99.90;;;;;;4984889;28;20422;-75
2023/03/22 02:28:21;;;;;;;7.65;2.10;;;9.70;99.90;;;;;;4988751;28;20430;-76
2023/03/22 02:30:49;;;;;;;10.38;2.08;;;9.60;99.90;;;;;;4980335;28;20436;-75
2023/03/22 02:33:53;;;;;;;8.97;3.10;;;9.60;99.90;;;;;;4978926;28;20486;-74
2023/03/22 02:36:57;;;;;;;8.23;1.80;;;9.60;99.90;;;;;;4988742;28;20514;-76
2023/03/22 02:39:30;;;;;;;12.73;3.40;;;9.60;99.90;;;;;;4979314;28;20444;-76
2023/03/22 02:42:12;;;;;;;9.70;1.98;;;9.60;99.90;;;;;;4985810;28;20462;-74
2023/03/22 02:44:42;;;;;;;13.93;2.80;;;9.60;99.90;;;;;;4979886;28;20753;-75
2023/03/22 02:47:29;;;;;;;11.77;2.13;;;9.70;99.90;;;;;;4946319;28;20424;-76
2023/03/22 02:49:57;;;;;;;10.07;2.47;;;9.60;99.90;;;;;;5008413;28;20444;-73
2023/03/22 02:52:45;;;;;;;7.35;1.70;;;9.70;99.90;;;;;;4984254;28;20435;-75
2023/03/22 02:55:20;;;;;;;10.93;3.27;;;9.70;99.90;;;;;;4982836;28;20518;-76
2023/03/22 02:58:11;;;;;;;8.48;2.53;;;9.70;99.90;;;;;;4985756;28;20510;-77
2023/03/22 03:00:38;;;;;;;10.68;2.35;;;9.70;99.90;;;;;;4985953;28;20481;-75
2023/03/22 03:03:10;;;;;;;11.75;2.20;;;9.70;99.90;;;;;;5008746;28;20831;-76
2023/03/22 03:05:40;;;;;;;11.73;3.08;;;9.70;99.90;;;;;;5001604;28;20426;-74
2023/03/22 03:08:09;;;;;;;12.93;2.97;;;9.70;99.90;;;;;;4985064;28;20434;-76
2023/03/22 03:10:36;;;;;;;11.43;2.33;;;9.70;99.90;;;;;;4983522;28;20426;-77
2023/03/22 03:13:02;;;;;;;11.32;2.28;;;9.70;99.90;;;;;;4976509;28;20434;-75
2023/03/22 03:15:27;;;;;;;10.10;2.90;;;9.80;99.90;;;;;;4985033;28;20422;-75
2023/03/22 03:18:31;;;;;;;11.73;2.27;;;9.80;99.90;;;;;;4986168;28;20805;-76
2023/03/22 03:21:24;;;;;;;6.88;1.70;;;9.70;99.90;;;;;;4983241;28;20426;-77
2023/03/22 03:24:02;;;;;;;10.73;2.40;;;9.70;99.90;;;;;;4999816;28;20448;-76
2023/03/22 03:26:55;;;;;;;10.35;2.20;;;9.70;99.90;;;;;;4986413;28;20437;-76
2023/03/22 03:29:41;;;;;;;8.43;2.13;;;9.70;99.90;;;;;;4985173;28;20766;-75
2023/03/22 03:32:13;;;;;;;10.65;2.50;;;9.80;99.90;;;;;;4985484;28;20513;-76
2023/03/22 03:34:53;;;;;;;10.27;2.00;;;9.70;99.90;;;;;;4979741;28;20426;-75
2023/03/22 03:37:28;;;;;;;9.80;2.43;;;9.80;99.90;;;;;;4973953;28;20424;-74
2023/03/22 03:40:04;;;;;;;10.10;2.90;;;9.70;99.90;;;;;;4977059;28;20825;-74
2023/03/22 03:42:30;;;;;;;11.20;3.20;;;9.70;99.90;;;;;;4973450;28;20524;-74
2023/03/22 03:44:57;;;;;;;9.25;2.83;;;9.80;99.90;;;;;;4984925;28;20911;-75
2023/03/22 03:47:24;;;;;;;10.07;2.13;;;9.80;99.90;;;;;;4982740;28;20537;-76
2023/03/22 03:49:50;;;;;;;9.93;3.00;;;9.80;99.90;;;;;;4983640;28;20474;-75
2023/03/22 03:52:16;;;;;;;13.90;3.78;;;9.80;99.90;;;;;;4976524;28;20444;-76
2023/03/22 03:54:41;;;;;;;8.57;2.90;;;9.70;99.90;;;;;;4986441;28;20495;-75
2023/03/22 03:57:08;;;;;;;10.83;2.43;;;9.80;99.90;;;;;;4979974;28;20432;-76
2023/03/22 03:59:33;;;;;;;8.32;2.72;;;9.80;99.90;;;;;;4979757;28;20422;-76
2023/03/22 04:01:59;;;;;;;14.57;3.30;;;9.70;99.90;;;;;;4981089;28;20463;-74
2023/03/22 04:04:27;;;;;;;8.68;2.67;;;9.80;99.90;;;;;;4982063;28;20430;-73
2023/03/22 04:06:55;;;;;;;13.00;3.27;;;9.70;99.90;;;;;;4974788;28;20497;-74
2023/03/22 04:09:22;;;;;;;10.98;3.30;;;9.70;99.90;;;;;;4980459;28;21355;-74
2023/03/22 04:11:48;;;;;;;10.98;3.03;;;9.80;99.90;;;;;;4985084;28;20466;-75
2023/03/22 04:14:14;;;;;;;15.15;4.18;;;9.80;99.90;;;;;;4985161;28;20813;-73
2023/03/22 04:16:40;;;;;;;11.32;3.67;;;9.80;99.90;;;;;;4985072;28;20436;-76
2023/03/22 04:19:05;;;;;;;13.77;3.53;;;9.80;99.90;;;;;;4981360;28;21230;-73
2023/03/22 04:21:31;;;;;;;13.40;3.90;;;9.70;99.90;;;;;;4987461;28;20425;-74
2023/03/22 04:23:57;;;;;;;9.93;2.73;;;9.80;99.90;;;;;;4985674;28;20816;-75
2023/03/22 04:26:23;;;;;;;10.83;2.77;;;9.70;99.90;;;;;;4985218;28;20435;-75
2023/03/22 04:28:48;;;;;;;7.97;3.17;;;9.70;99.90;;;;;;4992723;28;20509;-74
2023/03/22 04:31:14;;;;;;;10.60;3.40;;;9.70;99.90;;;;;;4985070;28;20469;-76
2023/03/22 04:33:40;;;;;;;10.17;3.67;;;9.70;99.90;;;;;;4982964;28;20517;-75
2023/03/22 04:36:09;;;;;;;8.37;3.10;;;9.80;99.90;;;;;;4988411;28;20442;-75
2023/03/22 04:38:38;;;;;;;9.43;2.95;;;9.70;99.90;;;;;;4987206;28;20509;-76
2023/03/22 04:41:05;;;;;;;10.25;3.90;;;9.70;99.90;;;;;;4979531;28;20853;-75
2023/03/22 04:43:33;;;;;;;11.77;3.70;;;9.80;99.90;;;;;;4990479;28;20433;-75
2023/03/22 04:46:03;;;;;;;9.93;3.67;;;9.80;99.90;;;;;;4988818;28;20426;-74
2023/03/22 04:48:29;;;;;;;8.83;3.80;;;9.80;99.90;;;;;;5020554;28;20521;-74
2023/03/22 04:50:55;;;;;;;12.43;4.77;;;9.80;99.90;;;;;;4988544;28;20438;-76
2023/03/22 04:53:26;;;;;;;11.02;4.70;;;9.80;99.90;;;;;;5020209;28;20504;-74
2023/03/22 04:55:55;;;;;;;13.63;4.95;;;9.80;99.90;;;;;;4982697;28;20435;-77
2023/03/22 04:58:23;;;;;;;11.52;4.20;;;9.80;99.90;;;;;;4989531;28;20465;-76
2023/03/22 05:00:51;;;;;;;11.60;5.00;;;9.80;99.90;;;;;;4980853;28;20429;-75
2023/03/22 05:03:19;;;;;;;11.90;6.15;;;9.80;99.90;;;;;;4988188;28;20434;-76
2023/03/22 05:05:56;;;;;;;11.23;5.32;;;9.80;99.90;;;;;;4989078;28;20430;-76
2023/03/22 05:08:24;;;;;;;15.63;5.82;;;9.80;99.90;;;;;;4979819;28;20801;-76
2023/03/22 05:10:51;;;;;;;10.50;5.28;;;9.80;99.90;;;;;;4982533;28;20434;-76
2023/03/22 05:13:17;;;;;;;15.63;6.20;;;9.80;99.90;;;;;;4989688;28;20461;-74
2023/03/22 05:15:44;;;;;;;11.75;5.47;;;9.80;99.90;;;;;;4986024;28;20921;-75
2023/03/22 05:18:10;;;;;;;12.60;6.32;;;9.80;99.90;;;;;;4986857;28;20449;-75
2023/03/22 05:20:36;;;;;;;11.43;5.87;;;9.80;99.90;;;;;;4986793;28;20418;-74
2023/03/22 05:23:03;;;;;;;10.85;6.32;;;9.80;99.90;;;;;;4988144;28;20466;-74
2023/03/22 05:25:28;;;;;;;11.38;7.40;;;9.80;99.90;;;;;;5016292;28;20438;-75
2023/03/22 05:27:54;;;;;;;12.02;5.82;;;9.80;99.90;;;;;;4989770;28;20427;-74
2023/03/22 05:30:20;;;;;;;15.73;8.00;;;9.70;99.90;;;;;;4987363;28;20433;-75
2023/03/22 05:32:46;;;;;;;14.73;7.73;;;9.80;99.90;;;;;;4973547;28;20510;-74
2023/03/22 05:35:12;;;;;;;14.32;7.57;;;9.80;99.90;;;;;;4983659;28;20425;-75
2023/03/22 05:37:38;;;;;;;10.33;7.30;;;9.80;99.90;;;;;;4988539;28;20533;-75
2023/03/22 05:40:08;;;;;;;14.07;8.37;;;9.80;99.90;;;;;;4992187;28;20495;-77
2023/03/22 05:42:35;;;;;;;18.38;9.02;;;9.80;99.90;;;;;;4977909;28;20424;-78
2023/03/22 05:45:01;;;;;;;21.45;11.48;;;9.80;99.90;;;;;;4971626;28;20524;-75
2023/03/22 05:47:27;;;;;;;18.35;11.52;;;9.80;99.90;;;;;;4977016;28;20428;-75
2023/03/22 05:49:53;;;;;;;20.93;12.97;;;9.80;99.90;;;;;;4980934;28;20522;-75
2023/03/22 05:52:18;;;;;;;21.83;13.00;;;9.90;99.90;;;;;;4986244;28;20479;-75
2023/03/22 05:54:44;;;;;;;17.05;10.57;;;9.90;99.90;;;;;;4987079;28;20493;-76
2023/03/22 05:57:10;;;;;;;15.00;9.20;;;9.80;99.90;;;;;;4988966;28;20517;-76
2023/03/22 05:59:35;;;;;;;15.18;9.25;;;9.90;99.90;;;;;;4984337;28;20441;-74
2023/03/22 06:02:01;;;;;;;18.92;10.27;;;10.00;99.90;;;;;;4989787;28;20438;-73
2023/03/22 06:04:27;;;;;;;14.00;9.10;;;10.00;99.90;;;;;;4987885;28;20435;-74
2023/03/22 06:06:52;;;;;;;15.30;9.70;;;9.90;99.90;;;;;;4985285;28;20510;-73
2023/03/22 06:09:18;;;;;;;18.00;10.73;;;10.00;99.90;;;;;;4974111;28;20780;-74
2023/03/22 06:11:44;;;;;;;15.43;9.47;;;10.00;99.90;;;;;;4984715;28;20439;-74
2023/03/22 06:14:10;;;;;;;19.15;10.38;;;10.10;99.90;;;;;;4983220;28;20422;-74
2023/03/22 06:16:36;;;;;;;17.80;11.82;;;10.10;99.90;;;;;;4986259;28;20430;-75
2023/03/22 06:19:01;;;;;;;13.27;9.67;;;10.10;99.90;;;;;;4987085;28;20505;-74
2023/03/22 06:21:27;;;;;;;15.03;10.03;;;10.10;99.90;;;;;;5000577;28;20532;-74
2023/03/22 06:23:53;;;;;;;17.53;10.37;;;10.10;99.90;;;;;;4981909;28;20906;-74
2023/03/22 06:26:18;;;;;;;15.68;9.38;;;10.20;99.90;;;;;;4980781;28;20451;-74
2023/03/22 06:28:44;;;;;;;16.73;9.77;;;10.10;99.90;;;;;;4987384;28;20423;-74
2023/03/22 06:31:10;;;;;;;15.32;9.90;;;10.20;99.90;;;;;;4986065;28;20537;-74
2023/03/22 06:33:36;;;;;;;17.55;11.00;;;10.20;99.90;;;;;;4985922;28;20428;-73
2023/03/22 06:36:02;;;;;;;17.38;10.52;;;10.20;99.90;;;;;;4979944;28;20466;-75
2023/03/22 06:38:28;;;;;;;19.70;12.37;;;10.30;99.90;;;;;;4983054;28;20418;-75
2023/03/22 06:40:54;;;;;;;18.98;11.23;;;10.30;99.90;;;;;;4986054;28;20441;-73
2023/03/22 06:43:20;;;;;;;13.52;10.20;;;10.40;99.90;;;;;;4969349;28;20452;-75
2023/03/22 06:45:47;;;;;;;15.57;11.03;;;10.40;99.90;;;;;;4981960;28;20438;-77
2023/03/22 06:48:13;;;;;;;18.15;10.90;;;10.50;99.90;;;;;;5016405;28;20430;-75
2023/03/22 06:50:40;;;;;;;15.48;9.88;;;10.50;99.90;;;;;;4981769;28;20509;-75
2023/03/22 06:53:06;;;;;;;21.63;13.00;;;10.60;99.90;;;;;;4981965;28;20481;-76
2023/03/22 06:55:33;;;;;;;18.95;11.23;;;10.70;99.90;;;;;;4978792;28;20513;-74
2023/03/22 06:58:02;;;;;;;20.25;11.68;;;10.70;99.90;;;;;;4988595;28;20514;-73
2023/03/22 07:00:29;;;;;;;16.05;11.07;;;10.70;99.90;;;;;;5012946;28;20445;-73
2023/03/22 07:02:54;;;;;;;16.65;10.32;;;10.70;99.90;;;;;;4983995;28;20442;-73
2023/03/22 07:05:20;;;;;;;13.27;10.23;;;10.70;99.90;;;;;;4983634;28;20422;-74
2023/03/22 07:07:46;;;;;;;16.65;9.30;;;10.60;99.90;;;;;;4986170;28;20434;-74
2023/03/22 07:10:12;;;;;;;17.60;10.00;;;10.70;99.90;;;;;;4981172;28;20459;-73
2023/03/22 07:12:38;;;;;;;21.05;11.05;;;10.70;99.90;;;;;;4983129;28;20957;-74
2023/03/22 07:15:04;;;;;;;17.05;10.55;;;10.70;99.90;;;;;;4985990;28;20425;-74
2023/03/22 07:17:29;;;;;;;15.80;9.25;;;10.70;99.90;;;;;;4986565;28;20437;-74
2023/03/22 07:19:55;;;;;;;16.03;9.17;;;10.70;99.90;;;;;;4985844;28;20418;-75
2023/03/22 07:22:21;;;;;;;18.20;10.20;;;10.70;99.90;;;;;;5016407;28;20920;-74
2023/03/22 07:24:51;;;;;;;14.57;9.02;;;10.70;99.90;;;;;;4985542;28;20429;-74
2023/03/22 07:27:17;;;;;;;14.93;7.75;;;10.80;99.90;;;;;;4979690;28;20430;-74
2023/03/22 07:29:43;;;;;;;14.07;8.05;;;10.70;99.90;;;;;;5018513;28;20528;-74
2023/03/22 07:32:10;;;;;;;13.15;8.65;;;10.70;99.90;;;;;;4976600;28;20444;-74
2023/03/22 07:34:35;;;;;;;14.35;8.38;;;10.70;99.90;;;;;;4985217;28;20434;-74
2023/03/22 07:37:02;;;;;;;14.23;8.38;;;10.70;99.90;;;;;;4984233;28;20422;-74
2023/03/22 07:39:28;;;;;;;13.15;8.15;;;10.80;99.90;;;;;;4977196;28;20492;-74
2023/03/22 07:41:55;;;;;;;11.85;8.10;;;10.80;99.90;;;;;;4989565;28;20448;-74
2023/03/22 07:44:21;;;;;;;14.93;7.53;;;10.80;99.90;;;;;;4979243;28;20512;-73
2023/03/22 07:46:47;;;;;;;11.88;7.57;;;10.90;99.90;;;;;;4983642;28;20430;-74
2023/03/22 07:49:13;;;;;;;15.32;8.57;;;11.10;99.90;;;;;;5017159;28;20444;-73
2023/03/22 07:51:39;;;;;;;14.80;7.28;;;11.00;99.90;;;;;;4985667;28;20438;-74
2023/03/22 07:54:05;;;;;;;13.65;7.30;;;11.10;99.90;;;;;;5018198;28;20769;-75
2023/03/22 07:56:31;;;;;;;16.08;7.88;;;11.10;99.90;;;;;;5016355;28;20506;-75
2023/03/22 07:58:57;;;;;;;14.50;7.13;;;11.10;99.90;;;;;;4971428;28;20426;-74
2023/03/22 08:01:23;;;;;;;16.42;7.82;;;11.00;99.90;;;;;;4984880;28;20435;-75
2023/03/22 08:03:49;;;;;;;12.10;6.55;;;11.00;99.90;;;;;;4991330;28;20912;-76
2023/03/22 08:06:18;;;;;;;13.65;6.05;;;11.00;99.90;;;;;;5005582;28;20422;-76
2023/03/22 08:08:44;;;;;;;13.85;7.00;;;11.00;99.90;;;;;;4986830;28;20425;-75
2023/03/22 08:11:11;;;;;;;10.68;6.15;;;11.10;99.90;;;;;;4988954;28;20928;-75
2023/03/22 08:13:37;;;;;;;16.77;7.20;;;11.10;99.90;;;;;;4985402;28;20429;-76
2023/03/22 08:16:03;;;;;;;15.95;6.65;;;11.10;99.90;;;;;;4985318;28;20466;-75
2023/03/22 08:18:29;;;;;;;11.52;5.47;;;11.10;99.90;;;;;;4986030;28;20928;-75
2023/03/22 08:20:57;;;;;;;12.55;5.80;;;11.20;99.90;;;;;;5019977;28;20430;-75
2023/03/22 08:23:25;;;;;;;16.60;7.15;;;11.20;99.90;;;;;;4989934;28;21041;-74
2023/03/22 08:25:51;;;;;;;17.23;6.30;;;11.20;99.90;;;;;;4987630;28;20431;-74
2023/03/22 08:28:17;;;;;;;13.25;6.35;;;11.20;99.90;;;;;;4987985;28;20435;-74
2023/03/22 08:30:45;;;;;;;10.60;5.55;;;11.30;99.90;;;;;;4996046;28;20478;-76
2023/03/22 08:33:11;;;;;;;14.48;6.50;;;11.40;99.90;;;;;;5010324;28;20519;-74
2023/03/22 08:35:37;;;;;;;14.70;6.07;;;11.40;99.90;;;;;;5003786;28;20426;-74
2023/03/22 08:38:03;;;;;;;9.80;5.28;;;11.40;99.90;;;;;;4990880;28;20421;-74
2023/03/22 08:40:29;;;;;;;13.65;5.90;;;11.60;99.90;;;;;;4991097;28;20428;-73
2023/03/22 08:42:54;;;;;;;12.23;5.80;;;11.60;99.90;;;;;;4990575;28;20438;-74
2023/03/22 08:45:20;;;;;;;13.63;5.88;;;11.80;99.90;;;;;;4986037;28;20466;-74
2023/03/22 08:47:46;;;;;;;12.13;4.75;;;11.80;99.90;;;;;;4989211;28;20552;-75
2023/03/22 08:50:12;;;;;;;16.90;6.05;;;11.70;99.90;;;;;;4993004;28;20482;-74
2023/03/22 08:52:38;;;;;;;10.40;5.18;;;11.60;99.90;;;;;;5000712;28;20461;-74
2023/03/22 08:55:04;;;;;;;10.07;4.22;;;11.50;99.90;;;;;;5020185;28;20433;-74
2023/03/22 08:57:30;;;;;;;12.70;4.80;;;11.40;99.90;;;;;;4988709;28;20465;-75
2023/03/22 08:59:56;;;;;;;12.97;4.43;;;11.50;99.90;;;;;;4990045;28;20792;-75
2023/03/22 09:02:23;;;;;;;13.90;4.43;;;11.40;99.90;;;;;;5007288;28;20409;-74
2023/03/22 09:04:49;;;;;;;10.88;4.38;;;11.50;99.90;;;;;;4988769;28;20415;-74
2023/03/22 09:07:16;;;;;;;12.65;5.15;;;11.50;99.90;;;;;;5003132;28;20472;-75
2023/03/22 09:09:42;;;;;;;10.63;5.57;;;11.40;99.90;;;;;;4990842;28;20402;-75
2023/03/22 09:12:08;;;;;;;15.23;4.22;;;11.50;99.90;;;;;;5008257;28;20430;-78
2023/03/22 09:14:34;;;;;;;11.25;4.28;;;11.50;99.90;;;;;;5009385;28;20464;-77
2023/03/22 09:17:01;;;;;;;14.77;4.78;;;11.50;99.90;;;;;;4992366;28;20442;-75
2023/03/22 09:19:27;;;;;;;11.85;4.68;;;11.50;99.90;;;;;;4989429;28;20960;-78
2023/03/22 09:21:53;;;;;;;12.38;4.25;;;11.50;99.90;;;;;;5020836;28;20480;-77
2023/03/22 09:24:19;;;;;;;11.20;3.70;;;11.30;99.90;;;;;;4987490;28;20845;-77
2023/03/22 09:26:46;;;;;;;11.32;4.45;;;11.30;99.90;;;;;;4988804;28;20754;-76
2023/03/22 09:29:12;;;;;;;11.70;4.50;;;11.30;99.90;;;;;;4989665;28;20485;-79
2023/03/22 09:31:38;;;;;;;11.30;3.67;;;11.20;99.90;;;;;;4988742;28;20597;-78
2023/03/22 09:34:04;;;;;;;9.73;3.60;;;11.20;99.90;;;;;;5003785;28;20508;-75
2023/03/22 09:36:31;;;;;;;13.93;4.80;;;11.20;99.90;;;;;;4988524;28;20792;-77
2023/03/22 09:38:58;;;;;;;12.90;4.65;;;11.20;99.90;;;;;;4989730;28;20425;-73
2023/03/22 09:41:42;;;;;;;12.45;3.65;;;11.20;99.90;;;;;;4994100;28;20942;-77
2023/03/22 09:44:17;;;;;;;8.90;3.55;;;11.10;99.90;;;;;;4987811;28;20431;-76
2023/03/22 09:46:49;;;;;;;10.77;3.40;;;11.00;99.90;;;;;;4986301;28;20462;-76
2023/03/22 09:49:25;;;;;;;11.40;4.32;;;10.90;99.90;;;;;;4986546;28;20504;-77
2023/03/22 09:51:52;;;;;;;13.73;4.15;;;10.90;99.90;;;;;;4984897;28;21077;-75
2023/03/22 09:54:30;;;;;;;9.77;4.32;;;10.90;99.90;;;;;;4986075;28;20428;-76
2023/03/22 09:57:19;;;;;;;11.30;3.53;;;10.90;99.90;;;;;;4985047;28;20434;-77
2023/03/22 09:59:57;;;;;;;11.48;4.47;;;10.80;99.90;;;;;;4968560;28;20467;-76
2023/03/22 10:02:29;;;;;;;11.30;3.85;;;10.80;99.90;;;;;;4987553;28;20932;-75
2023/03/22 10:05:13;;;;;;;11.63;4.13;;;10.80;99.90;;;;;;4989898;28;20418;-77
2023/03/22 10:08:00;;;;;;;12.23;3.95;;;10.70;99.90;;;;;;5019377;28;20418;-78
2023/03/22 10:10:26;;;;;;;10.88;3.67;;;10.70;99.90;;;;;;4988395;28;20479;-76
2023/03/22 10:13:12;;;;;;;12.18;4.78;;;10.60;99.90;;;;;;4982444;28;20445;-76
2023/03/22 10:15:45;;;;;;;12.77;4.70;;;10.60;99.90;;;;;;4985265;28;20556;-74
2023/03/22 10:18:19;;;;;;;13.70;4.33;;;10.60;99.90;;;;;;4988575;28;20422;-78
2023/03/22 10:21:06;;;;;;;11.07;4.45;;;10.50;99.90;;;;;;4989536;28;20933;-78
2023/03/22 10:23:44;;;;;;;13.48;3.92;;;10.60;99.90;;;;;;5020520;28;20426;-78
2023/03/22 10:26:19;;;;;;;16.20;5.30;;;10.60;99.90;;;;;;4987898;28;20947;-76
2023/03/22 10:28:52;;;;;;;13.43;4.15;;;10.50;99.90;;;;;;5020168;28;20411;-78
2023/03/22 10:31:20;;;;;;;12.35;4.78;;;10.40;99.90;;;;;;4987986;28;20441;-78
2023/03/22 10:34:13;;;;;;;14.20;4.32;;;10.50;99.90;;;;;;5020246;28;20421;-78
2023/03/22 10:36:41;;;;;;;14.90;5.50;;;10.50;99.90;;;;;;4987074;28;20426;-78
2023/03/22 10:39:26;;;;;;;10.82;4.55;;;10.50;99.90;;;;;;4987709;28;20434;-78
2023/03/22 10:41:58;;;;;;;9.90;4.05;;;10.50;99.90;;;;;;4999705;28;20432;-78
2023/03/22 10:44:26;;;;;;;11.07;4.23;;;10.40;99.90;;;;;;4975898;28;20536;-75
2023/03/22 10:46:55;;;;;;;12.03;3.77;;;10.50;99.90;;;;;;4986980;28;20426;-76
2023/03/22 10:49:27;;;;;;;12.10;4.43;;;10.50;99.90;;;;;;4986320;28;20422;-78
2023/03/22 10:51:56;;;;;;;10.98;3.72;;;10.60;99.90;;;;;;5002299;28;20469;-78
2023/03/22 10:54:24;;;;;;;10.30;4.40;;;10.50;99.90;;;;;;4987060;28;20881;-78
2023/03/22 10:56:50;;;;;;;11.57;3.47;;;10.60;99.90;;;;;;4986687;28;20408;-77
2023/03/22 10:59:50;;;;;;;9.20;3.97;;;10.60;99.90;;;;;;4986024;28;20805;-76
2023/03/22 11:02:30;;;;;;;10.02;3.90;;;10.60;99.90;;;;;;4985518;28;20434;-78
2023/03/22 11:05:02;;;;;;;8.20;3.55;;;10.60;99.90;;;;;;4986506;28;20434;-78
2023/03/22 11:07:30;;;;;;;13.00;4.95;;;10.70;99.90;;;;;;4983443;28;20986;-77
2023/03/22 11:10:08;;;;;;;10.52;3.70;;;10.70;99.90;;;;;;4978549;28;20640;-77
2023/03/22 11:12:42;;;;;;;8.75;3.17;;;10.60;99.90;;;;;;4987622;28;20525;-78
2023/03/22 11:15:29;;;;;;;9.05;4.30;;;10.60;99.90;;;;;;4998833;28;20556;-77
2023/03/22 11:18:06;;;;;;;7.50;3.37;;;10.70;99.90;;;;;;4976657;28;20442;-78
2023/03/22 11:20:34;;;;;;;9.17;3.90;;;10.70;99.90;;;;;;4982620;28;20528;-78
2023/03/22 11:23:01;;;;;;;7.88;3.58;;;10.80;99.90;;;;;;4994518;28;20430;-77
2023/03/22 11:25:30;;;;;;;14.93;4.28;;;10.70;99.90;;;;;;4979876;28;20795;-78
2023/03/22 11:28:09;;;;;;;7.88;3.38;;;10.80;99.90;;;;;;5009181;28;20437;-76
2023/03/22 11:30:36;;;;;;;7.18;3.25;;;10.80;99.90;;;;;;4993224;28;20438;-75
2023/03/22 11:33:07;;;;;;;9.85;4.45;;;10.90;99.90;;;;;;4973281;28;20443;-77
2023/03/22 11:35:35;;;;;;;11.60;4.53;;;10.90;99.90;;;;;;4974524;28;20442;-78
2023/03/22 11:38:01;;;;;;;9.27;3.40;;;10.80;99.90;;;;;;4986492;28;20498;-75
2023/03/22 11:40:30;;;;;;;9.05;3.70;;;10.80;99.90;;;;;;4985444;28;20435;-78
2023/03/22 11:43:19;;;;;;;11.02;5.10;;;10.80;99.90;;;;;;4989227;28;20436;-74
2023/03/22 11:45:49;;;;;;;11.32;4.30;;;10.90;99.90;;;;;;4989477;28;20901;-79
2023/03/22 11:48:19;;;;;;;7.20;4.00;;;11.00;99.90;;;;;;4988696;28;20471;-79
2023/03/22 11:50:45;;;;;;;10.80;4.05;;;10.90;99.90;;;;;;4990972;28;20414;-76
2023/03/22 11:53:16;;;;;;;12.25;4.57;;;11.00;99.90;;;;;;4990234;28;20422;-77
2023/03/22 11:55:44;;;;;;;8.45;4.03;;;11.10;99.90;;;;;;5022472;28;20414;-78
2023/03/22 11:58:43;;;;;;;9.38;3.92;;;11.10;99.90;;;;;;5020180;28;20454;-76
2023/03/22 12:01:15;;;;;;;11.32;4.07;;;11.10;99.90;;;;;;4971085;28;20595;-77
2023/03/22 12:03:42;;;;;;;9.32;3.63;;;11.00;99.90;;;;;;5022608;28;20445;-77
2023/03/22 12:06:19;;;;;;;8.63;3.65;;;11.00;99.90;;;;;;4989947;28;20430;-77
2023/03/22 12:08:52;;;;;;;7.88;3.58;;;10.90;99.90;;;;;;5007761;28;20452;-78
2023/03/22 12:11:25;;;;;;;9.40;3.33;;;10.90;99.90;;;;;;5009319;28;20421;-79
2023/03/22 12:13:57;;;;;;;10.13;3.25;;;10.90;99.90;;;;;;4993781;28;20487;-77
2023/03/22 12:16:28;;;;;;;7.83;3.17;;;10.90;99.90;;;;;;4999065;28;20430;-75
2023/03/22 12:19:14;;;;;;;8.60;3.67;;;11.00;99.90;;;;;;4991774;28;20897;-77
2023/03/22 12:21:40;;;;;;;8.52;2.65;;;10.90;99.90;;;;;;4993647;28;20476;-79
2023/03/22 12:24:25;;;;;;;9.73;3.50;;;10.90;99.90;;;;;;4991302;28;20407;-78
2023/03/22 12:27:06;;;;;;;9.93;3.60;;;10.90;99.90;;;;;;4985488;28;20483;-81
2023/03/22 12:29:35;;;;;;;7.20;2.65;;;11.00;99.90;;;;;;4987351;28;20509;-77
2023/03/22 12:32:26;;;;;;;5.72;2.85;;;11.00;99.90;;;;;;4987546;28;20445;-78
2023/03/22 12:34:52;;;;;;;4.55;2.40;;;10.80;99.90;;;;;;5005968;28;20442;-80
2023/03/22 12:37:27;;;;;;;9.68;3.13;;;10.80;99.90;;;;;;4989791;28;20806;-78
2023/03/22 12:39:59;;;;;;;10.53;3.20;;;10.80;99.90;;;;;;4999853;28;20946;-78
2023/03/22 12:42:59;;;;;;;5.68;2.40;;;10.90;99.90;;;;;;5006104;28;20441;-80
2023/03/22 12:45:28;;;;;;;5.50;2.72;;;10.90;99.90;;;;;;4977057;28;20436;-78
2023/03/22 12:48:16;;;;;;;8.20;3.70;;;10.90;99.90;;;;;;4981230;28;20517;-81
2023/03/22 12:51:05;;;;;;;9.13;3.78;;;10.80;99.90;;;;;;4989584;28;20492;-80
2023/03/22 12:54:00;;;;;;;9.95;4.05;;;10.80;99.90;;;;;;4981883;28;20933;-79
2023/03/22 12:56:38;;;;;;;7.63;3.33;;;10.80;99.90;;;;;;4970171;28;20969;-77
2023/03/22 12:59:11;;;;;;;10.50;3.75;;;10.70;99.90;;;;;;4987328;28;20828;-79